Aeroporto :
LOGIN :

Iscrizione | Disclaimer

   EN    FR    IT 

 










Sommario :    VFR   VFR Marginale   IFR   IFR Intensivo   IFR Molto Intensivo
Visibilità : 
Base nubi : 
>= 8 km
>= 3000ft
5 / 8 km
1000 / 3000 ft
1500m / 5 km
500 / 1000 ft
800 / 1500m
200 / 500 ft
< 800m
< 200 ft
Simboli :   Temporali  Nebbia  Neve Forte  Precipitazioni Forti  Vento > 20 kt
SIGMETs :   Varie  Temporali  Ghiacco  Turbolenza  Onda orograficha  Ceneri Vulcaniche






- Altitudine del aeroporto : 659 ft
- Codice IATA : LGG


EBLG - Liège

ULTIMO METAR :
  • 142320Z 23002KT 9999 FEW026 19/17 Q1015 NOSIG

METARs OBSOLETI :
  • 142250Z 25002KT CAVOK 20/17 Q1015 NOSIG
  • 142220Z 00000KT CAVOK 20/17 Q1015 NOSIG
  • 142150Z VRB02KT CAVOK 20/17 Q1015 NOSIG
  • 142120Z 33003KT 290V360 CAVOK 20/17 Q1015 NOSIG
  • 142050Z 31007KT 280V340 CAVOK 21/17 Q1015 NOSIG

TAF TAF EBLG
Valido dal 15 a 00 ore il 16 a 06 ore UTC


142310Z 1500/1606 VRB03KT 6000 FEW035
PROB30
TEMPO 1503/1506 2500 BR
PROB30
TEMPO 1511/1521 VRB20G35KT 2500 SHRA TSRAGR SCT025CB
TEMPO 1602/1606 3000 BR



MetMap, La meteo Aeronautica in un colpo d'occhio ! - Copyright ORBIFLY Dicembre 2007 - Disclaimer

ORBIFLY MET'MAP TEAM :

Programmazione e sviluppo : Alexandra Zaïnal
Concezione : Baudouin d'Aumeries
Aiuto per la programmazione : Marc-Olivier Méhu
Supporto tecnico e logistico : Manuel Goepfert
Aiuto per la traduzione : Arnaldo La Scala

Contatto : metmap@orbifly.com




FONTI E CREDITI :

   NOAA